CheckWX is a tool to help pilots better visualize weather data.  It is not intended as a substitute for an official pre-flight weather briefing.

08:52:49 UTC

KROG METAR
Rogers Executive - Carter Field Airport
Rogers, Arkansas, USA
Current

31 mins ago

KROG 240822Z AUTO 12006KT 10SM -RA BKN005 OVC009 08/08 A2971 RMK AO2 CIG 003V008 PNO $
Observed
Feb-24 @ 08:22 UTC
Wind
  • 120° at 6 KTS
Visibility
10 SM
Flight Rules
IFR
Conditions
Light Rain
Cloud Levels
  • Broken at 500' AGL
  • Overcast at 900' AGL
Temperature
C / 46°F
Dewpoint
C / 46°F
Humidity
100%
Altimeter
29.71" Hg
Pressure
1006.12 hPa
Previous

55 mins ago

KROG 240758Z AUTO 12006KT 10SM -RA OVC009 08/08 A2973 RMK AO2 SLP066 T00830078 PNO $
Observed
Feb-24 @ 07:58 UTC
Wind
  • 120° at 6 KTS
Visibility
10 SM
Flight Rules
IFR
Conditions
Light Rain
Cloud Levels
  • Overcast at 900' AGL
Temperature
C / 46°F
Dewpoint
C / 46°F
Humidity
100%
Altimeter
29.73" Hg
Pressure
1006.82 hPa
Previous

2 hours ago

KROG 240704Z AUTO 14007KT 10SM -RA SCT006 OVC013 08/08 A2976 RMK AO2 PNO $
Observed
Feb-24 @ 07:04 UTC
Wind
  • 140° at 7 KTS
Visibility
10 SM
Flight Rules
MVFR
Conditions
Light Rain
Cloud Levels
  • Scattered at 600' AGL
  • Overcast at 1,300' AGL
Temperature
C / 46°F
Dewpoint
C / 46°F
Humidity
100%
Altimeter
29.76" Hg
Pressure
1007.82 hPa